Blanc Sablon, Canada
Current Conditions -  °F | °C
As of 8:00 PM on Saturday 25 Oct 2014 (Local Time) from CYBX Reporting Station
Overcast Overcast  
Wind Chill: 25°   Ceiling: 2500
Heat Index: 36°   Visibility: 15mi
Dew Point: 28°   Wind: 18mph
Humidity: 75%   Direction: 60°ENE
Pressure: 29.76"   Gusts: 28mph
Location:  51.43°N, 57.14°W
Report Text: CYBX 252300Z 06016G24KT 15SM OVC025 02/M02 A2976 RMK SC8SLP082
Loading
Personal Weather Stations






























Interactive Weather Map
Tropical Storm Tracking
New forecast layout! Learn more

10-Day Weather Forecast

Advertisements
Track Severe Weather on mobile